Boulmer, United Kingdom
Current Conditions -  °F | °C
As of 3:50 PM on Wednesday 26 Nov 2014 (Local Time) from EGQM Reporting Station
Broken Clouds Broken Clouds  
Wind Chill: 43°   Ceiling: 3200
Heat Index: 46°   Visibility: 6mi
Dew Point: 43°   Wind: 7mph
Humidity: 87%   Direction: 100°E
Pressure: 29.88"   Gusts: NA
Location:  55.42°N, 1.58°W
Report Text: EGQM 261550Z AUTO 10006KT 9999 FEW022/// BKN032/// BKN037/// 08/06 Q1012 RERA
Loading
Personal Weather Stations






























Interactive Weather Map New forecast layout! Learn more

10-Day Weather Forecast

Advertisements
Track Severe Weather on mobile